Time;durP1;ratioP1;P1;durP2;ratioP2;P2;SDS_P1;SDS_P2;PMS_P1;PMS_P2;Temp;Humidity;BMP_temperature;BMP_pressure;BME280_temperature;BME280_humidity;BME280_pressure;Samples;Min_cycle;Max_cycle;Signal;HPM_P1;HPM_P2
2022/08/19 00:00:17;;;;;;;0.00;0.00;;;;;;;15.38;100.00;101255.25;4982237;28;20329;-69
2022/08/19 00:02:42;;;;;;;0.00;0.00;;;;;;;15.37;99.82;101254.38;4984372;28;20029;-69
2022/08/19 00:05:09;;;;;;;0.00;0.00;;;;;;;15.42;99.45;101257.53;4983603;28;20072;-69
2022/08/19 00:07:34;;;;;;;0.00;0.00;;;;;;;15.42;99.53;101260.22;4976594;28;20122;-69
2022/08/19 00:10:00;;;;;;;0.00;0.00;;;;;;;15.41;99.49;101265.78;4980511;28;20508;-69
2022/08/19 00:12:25;;;;;;;0.00;0.00;;;;;;;15.32;98.83;101261.22;4974925;28;20065;-69
2022/08/19 00:14:50;;;;;;;0.00;0.00;;;;;;;15.32;99.40;101263.94;4976352;28;20582;-69
2022/08/19 00:17:16;;;;;;;0.10;0.00;;;;;;;15.34;99.49;101260.09;4977932;28;20038;-69
2022/08/19 00:19:41;;;;;;;0.00;0.00;;;;;;;15.24;99.31;101246.53;4979460;28;20019;-69
2022/08/19 00:22:08;;;;;;;0.00;0.00;;;;;;;15.28;98.44;101260.66;4976831;28;20064;-69
2022/08/19 00:24:34;;;;;;;0.00;0.00;;;;;;;15.22;97.79;101264.78;4978170;28;20509;-69
2022/08/19 00:27:01;;;;;;;0.05;0.05;;;;;;;15.18;98.53;101262.47;4977082;28;20030;-69
2022/08/19 00:29:26;;;;;;;0.00;0.00;;;;;;;15.11;98.85;101263.03;4975714;28;20034;-69
2022/08/19 00:31:56;;;;;;;0.00;0.00;;;;;;;14.84;99.41;101234.78;4976547;28;20045;-69
2022/08/19 00:34:22;;;;;;;0.88;0.88;;;;;;;14.95;100.00;101260.00;4977094;28;20462;-69
2022/08/19 00:36:47;;;;;;;0.00;0.00;;;;;;;14.93;100.00;101260.16;4980314;28;20038;-69
2022/08/19 00:39:15;;;;;;;0.00;0.00;;;;;;;14.78;100.00;101239.91;4974002;28;20025;-69
2022/08/19 00:41:41;;;;;;;0.00;0.00;;;;;;;14.93;100.00;101265.56;4977655;28;20077;-69
2022/08/19 00:44:13;;;;;;;0.00;0.00;;;;;;;14.94;100.00;101275.38;4979266;28;20386;-69
2022/08/19 00:46:41;;;;;;;0.00;0.00;;;;;;;14.95;99.51;101278.94;4982225;28;20034;-69
2022/08/19 00:49:14;;;;;;;0.00;0.00;;;;;;;14.97;99.20;101276.94;4978711;28;22089;-69
2022/08/19 00:51:39;;;;;;;0.00;0.00;;;;;;;14.99;100.00;101273.09;4980024;28;20030;-69
2022/08/19 00:54:05;;;;;;;0.00;0.00;;;;;;;14.95;100.00;101260.00;4974805;28;20054;-69
2022/08/19 00:56:30;;;;;;;0.00;0.00;;;;;;;15.04;100.00;101270.00;4980357;28;20100;-69
2022/08/19 00:58:58;;;;;;;0.00;0.00;;;;;;;15.02;99.70;101268.41;4983214;28;20548;-69
2022/08/19 01:01:23;;;;;;;0.00;0.00;;;;;;;15.00;98.58;101268.56;4978939;28;20034;-69
2022/08/19 01:03:49;;;;;;;0.00;0.00;;;;;;;14.92;98.26;101274.66;4978301;28;20080;-69
2022/08/19 01:06:14;;;;;;;0.00;0.00;;;;;;;14.87;98.21;101266.09;4981130;28;20121;-69
2022/08/19 01:08:40;;;;;;;0.03;0.03;;;;;;;14.76;98.33;101256.25;4979100;28;20489;-69
2022/08/19 01:11:06;;;;;;;0.00;0.00;;;;;;;14.76;98.81;101268.91;4979323;28;20080;-69
2022/08/19 01:13:33;;;;;;;0.00;0.00;;;;;;;14.73;99.77;101271.88;4973908;28;20038;-69
2022/08/19 01:16:04;;;;;;;0.00;0.00;;;;;;;14.69;99.80;101269.47;4977251;28;20030;-71
2022/08/19 01:18:31;;;;;;;0.00;0.00;;;;;;;14.64;99.48;101273.53;4974766;28;20026;-70
2022/08/19 01:21:00;;;;;;;0.05;0.05;;;;;;;14.57;99.85;101275.91;4980627;28;20057;-71
2022/08/19 01:23:42;;;;;;;0.00;0.00;;;;;;;14.54;100.00;101281.59;4973552;28;20057;-71
2022/08/19 01:26:10;;;;;;;0.00;0.00;;;;;;;14.50;100.00;101281.00;4978946;28;20033;-71
2022/08/19 01:28:36;;;;;;;0.00;0.00;;;;;;;14.47;100.00;101270.47;4973008;28;20030;-71
2022/08/19 01:31:02;;;;;;;0.00;0.00;;;;;;;14.55;100.00;101267.09;4982073;28;20030;-72
2022/08/19 01:33:27;;;;;;;0.00;0.00;;;;;;;14.56;100.00;101263.41;4979410;28;20030;-71
2022/08/19 01:35:52;;;;;;;0.10;0.10;;;;;;;14.59;100.00;101260.44;4981247;28;20030;-72
2022/08/19 01:38:26;;;;;;;0.10;0.10;;;;;;;14.50;99.63;101274.72;4972503;28;20038;-72
2022/08/19 01:40:51;;;;;;;0.00;0.00;;;;;;;14.48;99.68;101274.00;4977895;28;20034;-72
2022/08/19 01:43:18;;;;;;;0.00;0.00;;;;;;;14.44;99.92;101272.56;4980159;28;20040;-71
2022/08/19 01:45:44;;;;;;;0.10;0.10;;;;;;;14.35;100.00;101269.69;4979618;28;20052;-72
2022/08/19 01:48:10;;;;;;;0.00;0.00;;;;;;;14.17;100.00;101247.84;4982348;28;20027;-71
2022/08/19 01:50:36;;;;;;;0.10;0.10;;;;;;;14.34;100.00;101270.69;4979568;28;20033;-71
2022/08/19 01:53:05;;;;;;;0.00;0.00;;;;;;;14.32;100.00;101272.66;4977793;28;20418;-72
2022/08/19 01:55:31;;;;;;;0.00;0.00;;;;;;;14.37;100.00;101283.06;4978032;28;20045;-71
2022/08/19 01:58:00;;;;;;;0.10;0.10;;;;;;;14.23;100.00;101265.34;4980466;28;20109;-71
2022/08/19 02:00:28;;;;;;;0.00;0.00;;;;;;;14.31;100.00;101279.06;4975780;28;20434;-71
2022/08/19 02:02:53;;;;;;;0.00;0.00;;;;;;;14.28;100.00;101289.28;4979235;28;20109;-71
2022/08/19 02:05:20;;;;;;;0.10;0.10;;;;;;;14.26;100.00;101292.09;4980072;28;20065;-71
2022/08/19 02:07:46;;;;;;;0.00;0.00;;;;;;;14.25;100.00;101288.56;4981746;28;20030;-70
2022/08/19 02:10:15;;;;;;;0.10;0.10;;;;;;;14.21;100.00;101289.81;4975800;28;20084;-71
2022/08/19 02:12:41;;;;;;;0.00;0.00;;;;;;;14.22;100.00;101285.25;4980025;28;20030;-71
2022/08/19 02:15:07;;;;;;;0.00;0.00;;;;;;;14.11;100.00;101264.56;4982014;28;20478;-71
2022/08/19 02:17:32;;;;;;;0.00;0.00;;;;;;;14.20;100.00;101284.50;4976660;28;20545;-71
2022/08/19 02:19:58;;;;;;;0.10;0.10;;;;;;;14.21;99.93;101302.44;4984824;28;20026;-71
2022/08/19 02:22:25;;;;;;;0.08;0.08;;;;;;;14.15;99.84;101302.97;4983886;28;20077;-71
2022/08/19 02:24:51;;;;;;;0.00;0.00;;;;;;;14.15;100.00;101297.59;4983892;28;20672;-71
2022/08/19 02:27:16;;;;;;;0.00;0.00;;;;;;;14.07;100.00;101274.78;4981669;28;20038;-71
2022/08/19 02:29:42;;;;;;;0.10;0.10;;;;;;;14.16;100.00;101273.13;4981507;28;20097;-71
2022/08/19 02:32:07;;;;;;;0.00;0.00;;;;;;;14.38;99.97;101292.88;4979904;28;20474;-71
2022/08/19 02:34:33;;;;;;;0.00;0.00;;;;;;;14.43;100.00;101295.19;4978935;28;20079;-71
2022/08/19 02:36:59;;;;;;;0.00;0.00;;;;;;;14.34;98.82;101297.69;4987286;28;20031;-71
2022/08/19 02:39:24;;;;;;;0.00;0.00;;;;;;;14.24;99.83;101291.38;4981323;28;20065;-71
2022/08/19 02:41:50;;;;;;;0.00;0.00;;;;;;;14.32;99.68;101294.28;4993074;28;20370;-71
2022/08/19 02:44:16;;;;;;;0.00;0.00;;;;;;;14.25;98.84;101302.06;4989764;28;20356;-71
2022/08/19 02:46:43;;;;;;;0.00;0.00;;;;;;;14.16;98.52;101304.69;4989659;28;20494;-70
2022/08/19 02:49:08;;;;;;;0.10;0.10;;;;;;;14.03;98.90;101302.19;4983525;28;20049;-71
2022/08/19 02:51:40;;;;;;;0.00;0.00;;;;;;;14.02;99.60;101309.41;4977207;28;20362;-71
2022/08/19 02:54:07;;;;;;;0.10;0.10;;;;;;;14.02;100.00;101297.78;5001319;28;20034;-70
2022/08/19 02:56:38;;;;;;;0.10;0.10;;;;;;;13.99;100.00;101304.28;4986184;28;20485;-71
2022/08/19 02:59:11;;;;;;;0.20;0.20;;;;;;;13.96;100.00;101301.84;4982589;28;20034;-71
2022/08/19 03:01:37;;;;;;;0.50;0.50;;;;;;;13.85;100.00;101304.59;4981960;28;20051;-71
2022/08/19 03:04:04;;;;;;;0.88;0.88;;;;;;;13.77;100.00;101297.16;4990515;28;20026;-71
2022/08/19 03:06:30;;;;;;;0.60;0.60;;;;;;;13.78;100.00;101294.31;4978869;28;20467;-71
2022/08/19 03:08:56;;;;;;;0.10;0.10;;;;;;;13.56;100.00;101267.44;4974906;28;20599;-71
2022/08/19 03:11:29;;;;;;;0.00;0.00;;;;;;;13.74;100.00;101298.25;4977745;28;20034;-71
2022/08/19 03:13:55;;;;;;;0.10;0.10;;;;;;;13.77;100.00;101303.41;4975724;28;20030;-71
2022/08/19 03:16:25;;;;;;;0.00;0.00;;;;;;;13.94;100.00;101306.50;4977262;28;20038;-70
2022/08/19 03:18:51;;;;;;;0.00;0.00;;;;;;;14.01;100.00;101306.88;4980434;28;20065;-70
2022/08/19 03:21:18;;;;;;;0.00;0.00;;;;;;;14.05;100.00;101308.28;4979786;28;20470;-71
2022/08/19 03:23:44;;;;;;;0.08;0.08;;;;;;;14.09;100.00;101313.31;4983852;28;20036;-71
2022/08/19 03:26:09;;;;;;;0.00;0.00;;;;;;;14.15;100.00;101317.31;4978116;28;20031;-71
2022/08/19 03:28:34;;;;;;;0.00;0.00;;;;;;;14.17;100.00;101309.94;4975763;28;20375;-71
2022/08/19 03:31:03;;;;;;;0.00;0.00;;;;;;;14.19;100.00;101304.41;4980851;28;20116;-71
2022/08/19 03:33:30;;;;;;;0.08;0.08;;;;;;;14.19;100.00;101304.41;4977313;28;20533;-71
2022/08/19 03:36:08;;;;;;;0.00;0.00;;;;;;;14.20;100.00;101306.13;4979945;28;21825;-71
2022/08/19 03:38:44;;;;;;;0.10;0.10;;;;;;;14.19;100.00;101304.41;4979371;28;20105;-71
2022/08/19 03:41:13;;;;;;;0.00;0.00;;;;;;;14.03;100.00;101313.00;4977757;28;20035;-71
2022/08/19 03:43:40;;;;;;;0.10;0.10;;;;;;;13.95;100.00;101310.91;4976846;28;20026;-71
2022/08/19 03:46:08;;;;;;;0.00;0.00;;;;;;;13.91;100.00;101304.94;4975992;28;20026;-71
2022/08/19 03:48:34;;;;;;;0.10;0.10;;;;;;;13.92;100.00;101308.47;4978018;28;20030;-71
2022/08/19 03:51:00;;;;;;;0.00;0.00;;;;;;;13.85;100.00;101296.50;4982465;28;20038;-71
2022/08/19 03:53:29;;;;;;;0.00;0.00;;;;;;;13.79;100.00;101304.13;4977343;28;20033;-71
2022/08/19 03:55:55;;;;;;;0.28;0.28;;;;;;;13.74;100.00;101305.50;4979918;28;20040;-71
2022/08/19 03:58:22;;;;;;;0.30;0.30;;;;;;;13.66;100.00;101300.72;4978626;28;20085;-71
2022/08/19 04:00:47;;;;;;;0.10;0.10;;;;;;;13.64;100.00;101297.31;4977786;28;20030;-70
2022/08/19 04:03:12;;;;;;;0.50;0.50;;;;;;;13.67;100.00;101304.31;4979168;28;20100;-71
2022/08/19 04:05:38;;;;;;;0.10;0.10;;;;;;;13.63;100.00;101293.75;4982716;28;20529;-71
2022/08/19 04:08:05;;;;;;;0.10;0.10;;;;;;;13.73;100.00;101299.25;4981642;28;20106;-71
2022/08/19 04:10:34;;;;;;;0.20;0.20;;;;;;;13.85;100.00;101301.91;4984603;28;20030;-71
2022/08/19 04:13:00;;;;;;;0.10;0.10;;;;;;;13.89;100.00;101301.50;4984253;28;20352;-71
2022/08/19 04:15:25;;;;;;;0.20;0.20;;;;;;;13.95;100.00;101297.41;4984710;28;20470;-71
2022/08/19 04:17:50;;;;;;;0.10;0.10;;;;;;;13.97;100.00;101298.16;4981215;28;20042;-70
2022/08/19 04:20:16;;;;;;;0.10;0.10;;;;;;;14.01;100.00;101298.75;4983910;28;20054;-71
2022/08/19 04:22:41;;;;;;;0.10;0.10;;;;;;;14.08;100.00;101289.13;4981810;28;20416;-71
2022/08/19 04:25:07;;;;;;;0.20;0.20;;;;;;;14.09;100.00;101301.66;4979691;28;20050;-71
2022/08/19 04:27:33;;;;;;;0.03;0.03;;;;;;;14.08;100.00;101295.41;4979123;28;20065;-71
2022/08/19 04:29:58;;;;;;;0.00;0.00;;;;;;;13.95;100.00;101290.19;4983328;28;20030;-71
2022/08/19 04:32:23;;;;;;;0.00;0.00;;;;;;;13.97;100.00;101273.84;4977328;28;20109;-71
2022/08/19 04:34:49;;;;;;;0.05;0.05;;;;;;;14.03;100.00;101278.72;4971650;28;20027;-71
2022/08/19 04:37:14;;;;;;;0.03;0.03;;;;;;;13.95;100.00;101268.59;4987079;28;20034;-71
2022/08/19 04:42:38;;;;;;;0.10;0.10;;;;;;;13.87;100.00;101281.88;4981260;28;20137;-71
2022/08/19 04:45:10;;;;;;;0.50;0.50;;;;;;;13.84;100.00;101287.53;4980381;28;20038;-71
2022/08/19 04:47:37;;;;;;;0.70;0.70;;;;;;;13.70;100.00;101256.31;4985802;28;20430;-71
2022/08/19 04:50:04;;;;;;;0.30;0.30;;;;;;;13.74;100.00;101265.03;4979957;28;20033;-71
2022/08/19 04:52:31;;;;;;;0.00;0.00;;;;;;;13.85;100.00;101285.72;4977374;28;20037;-71
2022/08/19 04:54:57;;;;;;;0.00;0.00;;;;;;;13.80;100.00;101288.78;4964886;28;20402;-71
2022/08/19 04:57:23;;;;;;;0.00;0.00;;;;;;;13.79;100.00;101292.47;4980007;28;20038;-71
2022/08/19 04:59:48;;;;;;;0.00;0.00;;;;;;;13.72;100.00;101294.84;4982140;28;20022;-71
2022/08/19 05:02:14;;;;;;;0.75;0.75;;;;;;;13.69;100.00;101289.69;4982496;28;20525;-71
2022/08/19 05:04:39;;;;;;;0.13;0.13;;;;;;;13.69;100.00;101291.53;4985083;28;20022;-71
2022/08/19 05:07:06;;;;;;;0.00;0.00;;;;;;;13.70;100.00;101295.97;4980691;28;20022;-71
2022/08/19 05:09:31;;;;;;;0.10;0.10;;;;;;;13.80;100.00;101310.38;4974144;28;20056;-70
2022/08/19 05:11:56;;;;;;;0.10;0.10;;;;;;;13.76;100.00;101288.19;4978486;28;20038;-70
2022/08/19 05:14:22;;;;;;;0.00;0.00;;;;;;;13.97;100.00;101305.41;4972553;28;20100;-70
2022/08/19 05:16:48;;;;;;;0.05;0.05;;;;;;;13.74;100.00;101265.88;4980211;28;20030;-70
2022/08/19 05:24:42;;;;;;;0.00;0.00;;;;;;;14.15;100.00;101311.09;4972740;28;20092;-70
2022/08/19 05:27:08;;;;;;;0.00;0.00;;;;;;;14.29;100.00;101312.59;4978823;28;20240;-70
2022/08/19 05:29:34;;;;;;;0.10;0.10;;;;;;;14.15;100.00;101274.13;4974168;28;20092;-69
2022/08/19 05:32:00;;;;;;;0.00;0.00;;;;;;;14.44;100.00;101313.09;4974722;28;20025;-70
2022/08/19 05:34:26;;;;;;;0.10;0.10;;;;;;;14.52;100.00;101314.16;4959454;28;20026;-70
2022/08/19 05:36:56;;;;;;;0.20;0.20;;;;;;;14.68;100.00;101319.09;4974054;28;20045;-70
2022/08/19 05:39:22;;;;;;;0.10;0.10;;;;;;;14.83;100.00;101322.28;4976876;28;20049;-70
2022/08/19 05:41:50;;;;;;;0.05;0.05;;;;;;;14.91;100.00;101337.84;4962269;28;20034;-70
2022/08/19 05:44:16;;;;;;;0.00;0.00;;;;;;;14.96;100.00;101337.44;4970328;28;20018;-70
2022/08/19 05:46:43;;;;;;;0.10;0.10;;;;;;;15.06;100.00;101330.22;4989636;28;22175;-69
2022/08/19 05:49:09;;;;;;;0.10;0.10;;;;;;;15.20;100.00;101331.69;4970113;28;20026;-70
2022/08/19 05:51:36;;;;;;;0.05;0.05;;;;;;;15.34;100.00;101340.38;4976924;28;20787;-70
2022/08/19 05:54:03;;;;;;;0.10;0.10;;;;;;;15.42;100.00;101327.03;4974594;28;20524;-70
2022/08/19 05:56:30;;;;;;;0.00;0.00;;;;;;;15.63;100.00;101345.00;4971921;28;20042;-70
2022/08/19 05:58:56;;;;;;;0.10;0.10;;;;;;;15.75;100.00;101333.06;4976230;28;20712;-70
2022/08/19 06:01:21;;;;;;;0.10;0.10;;;;;;;15.73;100.00;101307.97;4977940;28;20117;-70
2022/08/19 06:03:47;;;;;;;0.10;0.10;;;;;;;16.04;100.00;101337.63;4974053;28;20034;-70
2022/08/19 06:06:14;;;;;;;0.10;0.10;;;;;;;16.18;100.00;101336.34;4978585;28;20023;-70
2022/08/19 06:08:40;;;;;;;0.10;0.10;;;;;;;16.28;100.00;101326.34;4976128;28;20038;-71
2022/08/19 06:11:12;;;;;;;0.20;0.20;;;;;;;16.43;100.00;101326.75;4977544;28;20122;-70
2022/08/19 06:13:38;;;;;;;0.10;0.10;;;;;;;16.64;100.00;101321.13;4976056;28;20027;-69
2022/08/19 06:16:04;;;;;;;0.20;0.20;;;;;;;16.81;100.00;101331.34;4976686;28;20058;-71
2022/08/19 06:18:30;;;;;;;0.10;0.10;;;;;;;16.97;100.00;101337.03;4980008;28;20053;-69
2022/08/19 06:20:55;;;;;;;0.20;0.20;;;;;;;17.06;100.00;101332.56;4973662;28;20118;-69
2022/08/19 06:23:21;;;;;;;0.10;0.10;;;;;;;17.30;100.00;101342.00;4975869;28;20592;-69
2022/08/19 06:25:46;;;;;;;0.10;0.10;;;;;;;17.32;100.00;101327.28;4975170;28;20038;-69
2022/08/19 06:28:12;;;;;;;0.10;0.10;;;;;;;17.47;100.00;101345.75;4975417;28;20030;-69
2022/08/19 06:30:37;;;;;;;0.10;0.10;;;;;;;17.62;100.00;101340.66;4974078;28;20038;-69
2022/08/19 06:33:03;;;;;;;0.10;0.10;;;;;;;17.77;100.00;101330.09;4976661;28;20041;-69
2022/08/19 06:35:29;;;;;;;0.00;0.00;;;;;;;17.81;100.00;101316.06;4967571;28;20555;-70
2022/08/19 06:37:55;;;;;;;0.10;0.10;;;;;;;17.90;100.00;101322.41;4976477;28;20034;-70
2022/08/19 06:40:20;;;;;;;0.10;0.10;;;;;;;17.95;100.00;101324.69;4978649;28;20053;-70
2022/08/19 06:42:45;;;;;;;0.10;0.10;;;;;;;18.05;100.00;101321.91;4976963;28;20030;-70
2022/08/19 06:45:11;;;;;;;0.20;0.20;;;;;;;18.05;100.00;101327.34;4975524;28;20026;-69
2022/08/19 06:47:36;;;;;;;0.10;0.10;;;;;;;17.98;100.00;101329.81;4976940;28;20096;-69
2022/08/19 06:50:03;;;;;;;0.10;0.10;;;;;;;17.96;100.00;101327.22;4973322;28;20077;-69
2022/08/19 06:52:31;;;;;;;0.10;0.10;;;;;;;17.88;100.00;101315.44;4972834;28;20035;-69
2022/08/19 06:54:57;;;;;;;0.10;0.10;;;;;;;18.07;100.00;101326.16;4972125;28;20046;-68
2022/08/19 06:57:23;;;;;;;0.10;0.10;;;;;;;18.08;100.00;101324.31;4978021;28;20134;-68
2022/08/19 06:59:49;;;;;;;0.10;0.10;;;;;;;18.03;100.00;101322.03;4969280;28;20025;-68
2022/08/19 07:02:14;;;;;;;0.10;0.10;;;;;;;18.10;100.00;101309.53;4981174;28;20026;-68
2022/08/19 07:04:39;;;;;;;0.10;0.10;;;;;;;18.41;100.00;101328.13;4981569;28;20378;-69
2022/08/19 07:07:11;;;;;;;0.00;0.00;;;;;;;18.30;100.00;101328.38;4979377;28;20040;-70
2022/08/19 07:09:38;;;;;;;0.10;0.10;;;;;;;18.42;100.00;101331.69;4977247;28;20584;-69
2022/08/19 07:12:06;;;;;;;0.10;0.10;;;;;;;18.47;100.00;101333.94;4976801;28;20045;-69
2022/08/19 07:14:31;;;;;;;0.10;0.10;;;;;;;18.70;100.00;101339.66;4976970;28;20031;-70
2022/08/19 07:16:57;;;;;;;0.10;0.10;;;;;;;18.94;100.00;101338.09;4977363;28;20398;-68
2022/08/19 07:19:25;;;;;;;0.08;0.08;;;;;;;19.10;100.00;101340.94;4978821;28;20022;-69
2022/08/19 07:21:54;;;;;;;0.10;0.10;;;;;;;19.27;100.00;101346.44;4983543;28;20471;-71
2022/08/19 07:24:23;;;;;;;0.00;0.00;;;;;;;19.32;100.00;101347.66;4978876;28;20131;-69
2022/08/19 07:26:50;;;;;;;0.00;0.00;;;;;;;19.27;100.00;101350.03;4980483;28;20514;-69
2022/08/19 07:29:16;;;;;;;0.00;0.00;;;;;;;19.11;100.00;101334.47;4980750;28;20481;-69
2022/08/19 07:31:41;;;;;;;0.10;0.10;;;;;;;19.22;100.00;101348.78;4978095;28;20038;-68
2022/08/19 07:34:08;;;;;;;0.10;0.10;;;;;;;19.22;100.00;101351.50;4983770;28;20034;-69
2022/08/19 07:36:37;;;;;;;0.10;0.10;;;;;;;19.35;100.00;101365.53;4975137;28;20093;-69
2022/08/19 07:39:06;;;;;;;0.00;0.00;;;;;;;19.27;100.00;101365.50;4977785;28;20034;-69
2022/08/19 07:41:32;;;;;;;0.05;0.05;;;;;;;19.32;100.00;101335.91;4978977;28;20545;-70
2022/08/19 07:44:03;;;;;;;0.00;0.00;;;;;;;19.63;99.18;101357.94;4982435;28;20039;-70
2022/08/19 07:46:30;;;;;;;0.10;0.10;;;;;;;19.61;98.45;101359.97;4976416;28;20062;-70
2022/08/19 07:48:56;;;;;;;0.05;0.05;;;;;;;19.89;97.35;101369.78;4978369;28;20030;-70
2022/08/19 07:51:21;;;;;;;0.10;0.10;;;;;;;19.87;97.29;101375.34;4978306;28;20049;-69
2022/08/19 07:53:50;;;;;;;0.73;0.00;;;;;;;19.90;95.38;101377.75;4977923;28;20030;-70
2022/08/19 07:56:18;;;;;;;0.10;0.10;;;;;;;20.08;96.27;101383.06;4979939;28;20053;-69
2022/08/19 07:58:45;;;;;;;0.00;0.00;;;;;;;20.25;95.56;101374.06;4982425;28;20494;-70
2022/08/19 08:01:13;;;;;;;0.00;0.00;;;;;;;20.25;93.97;101374.91;4978524;28;20616;-69
2022/08/19 08:09:10;;;;;;;0.10;0.10;;;;;;;20.36;92.91;101368.25;4982926;28;19929;-70
2022/08/19 08:11:39;;;;;;;0.00;0.00;;;;;;;20.49;93.03;101376.75;4979369;28;20030;-71
2022/08/19 08:14:06;;;;;;;0.08;0.08;;;;;;;20.55;92.65;101380.66;4975477;28;20501;-70
2022/08/19 08:16:36;;;;;;;0.00;0.00;;;;;;;20.70;91.33;101382.72;4974311;28;20039;-70
2022/08/19 08:19:05;;;;;;;0.00;0.00;;;;;;;20.68;91.98;101353.72;4966199;28;20370;-71
2022/08/19 08:21:30;;;;;;;0.08;0.08;;;;;;;20.92;89.18;101384.72;4974650;28;20065;-70
2022/08/19 08:23:55;;;;;;;0.00;0.00;;;;;;;20.82;89.73;101384.06;4978950;28;20100;-69
2022/08/19 08:26:21;;;;;;;0.00;0.00;;;;;;;20.80;90.35;101392.44;4979208;28;20113;-68
2022/08/19 08:28:47;;;;;;;0.00;0.00;;;;;;;21.08;88.70;101397.47;4975952;28;20493;-69
2022/08/19 08:31:12;;;;;;;0.00;0.00;;;;;;;21.35;87.58;101397.19;4981155;28;20497;-69
2022/08/19 08:33:37;;;;;;;0.10;0.10;;;;;;;21.52;86.92;101390.63;4981090;28;20038;-70
2022/08/19 08:36:07;;;;;;;0.00;0.00;;;;;;;21.53;82.74;101395.06;4971801;28;20118;-69
2022/08/19 08:38:34;;;;;;;0.00;0.00;;;;;;;21.25;84.01;101397.41;4978169;28;20038;-69
2022/08/19 08:41:12;;;;;;;0.00;0.00;;;;;;;21.55;85.09;101397.63;4975599;28;20501;-67
2022/08/19 08:43:42;;;;;;;0.00;0.00;;;;;;;;;;4977772;28;20031;-68
2022/08/19 08:46:34;;;;;;;0.00;0.00;;;;;;;21.03;84.89;101393.59;4976465;28;20537;-68
2022/08/19 08:49:16;;;;;;;0.00;0.00;;;;;;;21.32;83.48;101403.88;4976480;28;20402;-67
2022/08/19 08:51:47;;;;;;;0.00;0.00;;;;;;;21.25;83.10;101405.59;4978770;28;20034;-68
2022/08/19 08:54:15;;;;;;;0.00;0.00;;;;;;;21.55;84.48;101401.22;4977820;28;20056;-69
2022/08/19 08:56:42;;;;;;;0.00;0.00;;;;;;;21.74;81.47;101401.81;4975900;28;20030;-69
2022/08/19 08:59:19;;;;;;;0.00;0.00;;;;;;;21.72;85.50;101412.91;4981157;28;20121;-68
2022/08/19 09:01:44;;;;;;;0.00;0.00;;;;;;;21.92;82.94;101393.34;4976275;28;20030;-68
2022/08/19 09:04:10;;;;;;;0.00;0.00;;;;;;;22.19;80.14;101407.50;4976545;28;20077;-68
2022/08/19 09:06:43;;;;;;;0.00;0.00;;;;;;;22.20;80.29;101400.13;4975676;28;20058;-66
2022/08/19 09:10:01;;;;;;;0.00;0.00;;;;;;;22.33;81.53;101409.41;4978645;28;20034;-69
2022/08/19 09:12:41;;;;;;;0.00;0.00;;;;;;;22.58;79.92;101402.91;4974831;28;20084;-67
2022/08/19 09:15:09;;;;;;;0.00;0.00;;;;;;;22.96;78.50;101396.53;4961668;28;20097;-66
2022/08/19 09:17:35;;;;;;;0.00;0.00;;;;;;;23.04;77.06;101399.19;4976746;28;20142;-67
2022/08/19 09:20:09;;;;;;;0.00;0.00;;;;;;;23.05;78.78;101403.59;4973863;28;20273;-68
2022/08/19 09:22:40;;;;;;;0.00;0.00;;;;;;;23.23;75.98;101414.22;4981230;28;20255;-70
2022/08/19 09:25:08;;;;;;;0.00;0.00;;;;;;;23.18;76.22;101412.03;4980340;28;20034;-70
2022/08/19 09:27:36;;;;;;;0.00;0.00;;;;;;;23.14;76.90;101418.91;4978775;28;20037;-67
2022/08/19 09:30:01;;;;;;;0.05;0.05;;;;;;;22.95;78.61;101422.22;4976310;28;20026;-66
2022/08/19 09:32:27;;;;;;;0.00;0.00;;;;;;;21.90;79.71;101413.66;4974371;28;20037;-65
2022/08/19 09:34:54;;;;;;;0.00;0.00;;;;;;;22.44;79.18;101421.84;4978875;28;20085;-70
2022/08/19 09:37:20;;;;;;;0.00;0.00;;;;;;;22.55;77.69;101409.59;4982265;28;20145;-67
2022/08/19 09:39:45;;;;;;;0.00;0.00;;;;;;;22.48;78.20;101422.34;4981640;28;20479;-67
2022/08/19 09:42:13;;;;;;;0.00;0.00;;;;;;;22.49;78.67;101429.50;4978616;28;20459;-66
2022/08/19 09:44:39;;;;;;;0.00;0.00;;;;;;;22.62;77.23;101426.16;4977040;28;20034;-67
2022/08/19 09:47:05;;;;;;;0.00;0.00;;;;;;;22.42;77.30;101433.97;4982585;28;20084;-67
2022/08/19 09:49:30;;;;;;;0.00;0.00;;;;;;;22.32;77.14;101428.75;4980261;28;20418;-66
2022/08/19 09:51:56;;;;;;;0.00;0.00;;;;;;;22.27;77.19;101425.72;4976980;28;20065;-66
2022/08/19 09:54:21;;;;;;;0.00;0.00;;;;;;;22.04;78.20;101429.31;4980774;28;20513;-67
2022/08/19 09:56:47;;;;;;;0.00;0.00;;;;;;;22.07;78.80;101428.94;4980503;28;20493;-68
2022/08/19 09:59:12;;;;;;;0.00;0.00;;;;;;;21.59;80.54;101429.00;4981337;28;20069;-66
2022/08/19 10:01:38;;;;;;;0.00;0.00;;;;;;;21.58;80.60;101436.34;4969722;28;20042;-66
2022/08/19 10:04:08;;;;;;;0.00;0.00;;;;;;;21.77;79.89;101434.25;4973639;28;20031;-66
2022/08/19 10:06:35;;;;;;;0.00;0.00;;;;;;;22.01;80.04;101440.59;4976462;28;20386;-66
2022/08/19 10:09:00;;;;;;;0.00;0.00;;;;;;;21.94;79.83;101439.63;4982412;28;20069;-67
2022/08/19 10:11:26;;;;;;;0.00;0.00;;;;;;;21.85;80.73;101438.81;4977321;28;20026;-66
2022/08/19 10:13:51;;;;;;;0.00;0.00;;;;;;;22.21;78.93;101440.13;4971854;28;20109;-69
2022/08/19 10:16:21;;;;;;;0.00;0.00;;;;;;;22.57;77.37;101450.47;4971855;28;20046;-67
2022/08/19 10:18:46;;;;;;;0.03;0.03;;;;;;;22.74;76.78;101432.84;4979632;28;20048;-67
2022/08/19 10:21:13;;;;;;;0.00;0.00;;;;;;;22.69;76.51;101437.19;4980082;28;20469;-68
2022/08/19 10:23:39;;;;;;;0.00;0.00;;;;;;;22.53;76.98;101438.19;4977804;28;20505;-69
2022/08/19 10:26:06;;;;;;;0.00;0.00;;;;;;;22.85;75.13;101442.50;4978490;28;20129;-70
2022/08/19 10:28:38;;;;;;;0.00;0.00;;;;;;;23.25;73.62;101430.47;4983502;28;20030;-68
2022/08/19 10:31:08;;;;;;;0.00;0.00;;;;;;;22.43;76.53;101431.06;4978319;28;20034;-66
2022/08/19 10:33:35;;;;;;;0.00;0.00;;;;;;;21.97;77.67;101434.66;4973979;28;20101;-68
2022/08/19 10:36:07;;;;;;;0.00;0.00;;;;;;;22.25;77.44;101433.25;4977003;28;20143;-67
2022/08/19 10:38:33;;;;;;;0.00;0.00;;;;;;;22.53;76.06;101414.41;4980066;28;20505;-66
2022/08/19 10:41:06;;;;;;;0.00;0.00;;;;;;;22.89;74.15;101415.63;4984175;28;20093;-66
2022/08/19 10:43:34;;;;;;;0.00;0.00;;;;;;;23.18;73.33;101422.97;4981944;28;20366;-66
2022/08/19 10:45:59;;;;;;;0.00;0.00;;;;;;;23.54;71.65;101426.84;4978708;28;20070;-66
2022/08/19 10:48:24;;;;;;;0.00;0.00;;;;;;;23.48;71.97;101427.59;4981350;28;20069;-65
2022/08/19 10:53:33;;;;;;;0.00;0.00;;;;;;;24.36;71.41;101424.81;4980947;28;20053;-66
2022/08/19 10:58:43;;;;;;;0.00;0.00;;;;;;;24.58;68.25;101418.44;4978476;28;20050;-68
2022/08/19 11:01:08;;;;;;;0.00;0.00;;;;;;;24.62;68.07;101406.00;4979728;28;20022;-67
2022/08/19 11:03:33;;;;;;;0.00;0.00;;;;;;;24.88;67.62;101410.88;4977998;28;20401;-67
2022/08/19 11:06:00;;;;;;;0.00;0.00;;;;;;;25.09;66.91;101418.19;4979437;28;20125;-68
2022/08/19 11:08:26;;;;;;;0.00;0.00;;;;;;;24.98;66.13;101414.09;4981564;28;20227;-67
2022/08/19 11:10:56;;;;;;;0.00;0.00;;;;;;;24.80;68.49;101394.56;4978283;28;20073;-67
2022/08/19 11:13:22;;;;;;;0.00;0.00;;;;;;;24.76;69.29;101413.34;4978197;28;20030;-67
2022/08/19 11:16:07;;;;;;;0.00;0.00;;;;;;;24.42;69.32;101414.94;4980566;28;20104;-65
2022/08/19 11:18:37;;;;;;;0.00;0.00;;;;;;;24.77;68.35;101411.44;4977362;28;20035;-68
2022/08/19 11:21:11;;;;;;;0.00;0.00;;;;;;;24.80;67.40;101411.03;4974153;28;20364;-67
2022/08/19 11:23:37;;;;;;;0.00;0.00;;;;;;;25.05;68.28;101405.06;4981284;28;20382;-68
2022/08/19 11:26:02;;;;;;;0.00;0.00;;;;;;;25.65;66.54;101410.88;4979033;28;20477;-68
2022/08/19 11:28:28;;;;;;;0.00;0.00;;;;;;;25.86;64.39;101417.25;4981235;28;20341;-68
2022/08/19 11:30:53;;;;;;;0.00;0.00;;;;;;;25.57;64.25;101416.53;4978223;28;20036;-69
2022/08/19 11:33:19;;;;;;;0.00;0.00;;;;;;;25.58;63.99;101412.72;4978054;28;20026;-67
2022/08/19 11:35:44;;;;;;;0.00;0.00;;;;;;;25.52;64.10;101413.56;4979558;28;20026;-67
2022/08/19 11:38:10;;;;;;;0.00;0.00;;;;;;;25.56;64.21;101406.59;4980520;28;20386;-67
2022/08/19 11:40:36;;;;;;;0.00;0.00;;;;;;;25.37;64.32;101384.28;4979095;28;20021;-66